Time;durP1;ratioP1;P1;durP2;ratioP2;P2;SDS_P1;SDS_P2;PMS_P1;PMS_P2;Temp;Humidity;BMP_temperature;BMP_pressure;BME280_temperature;BME280_humidity;BME280_pressure;Samples;Min_cycle;Max_cycle;Signal;HPM_P1;HPM_P2
2022/12/23 00:02:16;;;;;;;4.30;0.70;;;;;;;11.13;93.76;99325.81;5051118;28;20385;-73
2022/12/23 00:04:41;;;;;;;3.03;0.40;;;;;;;11.15;94.00;99318.25;5026675;28;20415;-73
2022/12/23 00:07:06;;;;;;;1.80;0.40;;;;;;;11.15;93.75;99312.00;5048069;28;20445;-73
2022/12/23 00:09:32;;;;;;;2.93;0.70;;;;;;;11.18;93.86;99309.56;5040128;28;20831;-73
2022/12/23 00:17:25;;;;;;;1.15;0.50;;;;;;;11.23;93.82;99300.59;5025820;28;20384;-73
2022/12/23 00:19:50;;;;;;;4.65;0.50;;;;;;;11.25;93.97;99298.41;5041497;28;20508;-73
2022/12/23 00:22:15;;;;;;;1.33;0.30;;;;;;;11.27;93.91;99298.94;5050592;28;20397;-72
2022/12/23 00:24:41;;;;;;;1.20;0.82;;;;;;;11.29;93.92;99305.72;5049648;28;20389;-72
2022/12/23 00:27:06;;;;;;;1.40;0.50;;;;;;;11.32;93.61;99312.50;5050597;28;20397;-72
2022/12/23 00:29:31;;;;;;;1.77;0.40;;;;;;;11.32;93.76;99326.88;5031658;28;20427;-73
2022/12/23 00:31:56;;;;;;;1.10;0.70;;;;;;;11.32;93.51;99316.03;5036738;28;20398;-72
2022/12/23 00:34:22;;;;;;;3.00;0.40;;;;;;;11.33;93.82;99311.38;5034703;28;20406;-72
2022/12/23 00:36:47;;;;;;;2.00;0.40;;;;;;;11.36;93.86;99319.00;5050518;28;20880;-72
2022/12/23 00:44:40;;;;;;;1.97;0.40;;;;;;;11.46;93.61;99327.06;5036448;28;20399;-73
2022/12/23 00:47:05;;;;;;;1.63;0.37;;;;;;;11.49;93.65;99323.00;5050484;28;20474;-72
2022/12/23 00:49:42;;;;;;;2.43;0.50;;;;;;;11.50;93.69;99336.28;5031228;28;20412;-73
2022/12/23 00:52:14;;;;;;;0.60;0.40;;;;;;;11.52;93.66;99339.53;5044318;28;20389;-72
2022/12/23 00:54:39;;;;;;;1.20;0.33;;;;;;;11.54;93.81;99347.38;5048342;28;20444;-72
2022/12/23 00:57:05;;;;;;;2.40;0.60;;;;;;;11.58;93.41;99356.59;5052715;28;20416;-73
2022/12/23 00:59:30;;;;;;;1.90;0.40;;;;;;;11.59;93.79;99352.81;5044206;28;20956;-72
2022/12/23 01:07:23;;;;;;;0.50;0.40;;;;;;;11.66;93.75;99350.59;5054509;28;20408;-72
2022/12/23 01:09:49;;;;;;;3.70;0.40;;;;;;;11.67;93.61;99354.94;5039475;28;20817;-72
2022/12/23 01:12:14;;;;;;;1.58;0.38;;;;;;;11.66;93.74;99354.13;5048443;28;20462;-73
2022/12/23 01:14:40;;;;;;;1.90;0.20;;;;;;;11.68;93.77;99360.09;5031883;28;20405;-73
2022/12/23 01:17:06;;;;;;;3.15;0.40;;;;;;;11.70;93.65;99357.94;5054027;28;20397;-72
2022/12/23 01:19:31;;;;;;;1.75;0.30;;;;;;;11.70;93.57;99371.50;5034609;28;20987;-72
2022/12/23 01:21:56;;;;;;;1.70;0.30;;;;;;;11.72;93.74;99373.94;5029617;28;20484;-72
2022/12/23 01:24:22;;;;;;;0.60;0.25;;;;;;;11.73;93.95;99376.38;5054263;28;20447;-72
2022/12/23 01:26:47;;;;;;;0.70;0.30;;;;;;;11.74;94.03;99366.34;5032468;28;20396;-72
2022/12/23 01:29:13;;;;;;;0.90;0.43;;;;;;;11.76;93.98;99383.13;5030428;28;20505;-72
2022/12/23 01:31:38;;;;;;;0.50;0.30;;;;;;;11.78;93.89;99392.66;5033373;28;20419;-72
2022/12/23 01:34:04;;;;;;;2.80;0.43;;;;;;;11.78;93.85;99398.06;5051206;28;20447;-72
2022/12/23 01:36:29;;;;;;;1.55;0.30;;;;;;;11.77;93.77;99393.72;5032687;28;20400;-72
2022/12/23 01:38:55;;;;;;;3.50;0.50;;;;;;;11.77;93.86;99399.16;5032995;28;20488;-72
2022/12/23 01:44:45;;;;;;;0.30;0.28;;;;;;;11.83;93.88;99414.34;5053594;28;20470;-73
2022/12/23 01:47:17;;;;;;;2.00;0.40;;;;;;;11.85;93.89;99411.34;5046663;28;20413;-73
2022/12/23 01:49:42;;;;;;;1.45;0.20;;;;;;;11.83;94.13;99416.22;5042834;28;20892;-73
2022/12/23 01:52:10;;;;;;;2.50;0.30;;;;;;;11.84;94.11;99426.81;5032179;28;20446;-72
2022/12/23 01:54:36;;;;;;;2.30;0.30;;;;;;;11.86;94.16;99429.25;5053220;28;20496;-72
2022/12/23 01:57:02;;;;;;;1.30;0.20;;;;;;;11.89;94.23;99437.66;5052456;28;20385;-72
2022/12/23 02:04:55;;;;;;;3.60;0.20;;;;;;;12.00;93.78;99452.00;5052335;28;20384;-72
2022/12/23 02:10:06;;;;;;;1.00;0.50;;;;;;;12.01;94.03;99460.97;5038274;28;20473;-72
2022/12/23 02:12:55;;;;;;;0.60;0.22;;;;;;;12.03;93.86;99466.91;5042550;28;20391;-72
2022/12/23 02:18:40;;;;;;;0.30;0.30;;;;;;;12.06;93.96;99474.50;5036446;28;20401;-72
2022/12/23 02:21:28;;;;;;;0.17;0.17;;;;;;;12.06;93.93;99485.38;5027491;28;20753;-72
2022/12/23 02:24:15;;;;;;;2.30;0.10;;;;;;;12.08;94.03;99496.78;5052941;28;20386;-72
2022/12/23 02:26:59;;;;;;;0.28;0.20;;;;;;;12.15;94.12;99505.44;5051841;28;20395;-72
2022/12/23 02:30:01;;;;;;;0.20;0.15;;;;;;;12.15;93.92;99500.00;5051345;28;20447;-72
2022/12/23 02:32:36;;;;;;;0.55;0.20;;;;;;;12.11;93.90;99512.50;5046566;28;20398;-72
2022/12/23 02:35:19;;;;;;;1.75;0.50;;;;;;;12.09;94.16;99509.25;5025997;28;20413;-72
2022/12/23 02:38:04;;;;;;;0.30;0.30;;;;;;;12.10;93.94;99524.47;5052486;28;20389;-73
2022/12/23 02:40:41;;;;;;;4.75;2.75;;;;;;;12.09;93.87;99520.09;5037717;28;20741;-72
2022/12/23 02:43:14;;;;;;;2.40;0.38;;;;;;;12.09;94.07;99520.09;5052297;28;20413;-72
2022/12/23 02:45:42;;;;;;;0.45;0.28;;;;;;;12.10;94.12;99519.84;5043536;28;20445;-72
2022/12/23 02:48:18;;;;;;;1.10;0.40;;;;;;;12.09;94.45;99530.97;5033147;28;20511;-72
2022/12/23 02:50:45;;;;;;;2.40;0.35;;;;;;;12.11;94.35;99536.97;5052275;28;20388;-72
2022/12/23 02:53:18;;;;;;;1.45;0.25;;;;;;;12.08;94.19;99534.78;5052507;28;20421;-73
2022/12/23 02:55:46;;;;;;;0.22;0.22;;;;;;;12.10;94.26;99538.84;5052316;28;20413;-72
2022/12/23 02:58:15;;;;;;;1.10;0.30;;;;;;;12.10;94.08;99538.84;5016343;28;20949;-73
2022/12/23 03:00:42;;;;;;;0.20;0.20;;;;;;;12.10;94.11;99536.13;5038610;28;20400;-73
2022/12/23 03:03:08;;;;;;;0.80;0.30;;;;;;;12.14;93.77;99533.69;5052246;28;20415;-73
2022/12/23 03:05:38;;;;;;;0.30;0.20;;;;;;;12.16;93.93;99539.63;5052132;28;20381;-73
2022/12/23 03:08:06;;;;;;;1.20;0.20;;;;;;;12.10;94.03;99546.19;5021478;28;20423;-73
2022/12/23 03:10:43;;;;;;;1.20;0.20;;;;;;;12.08;94.24;99543.75;5051921;28;20392;-73
2022/12/23 03:13:23;;;;;;;0.60;0.13;;;;;;;12.08;94.45;99545.66;5037223;28;20439;-72
2022/12/23 03:16:15;;;;;;;0.60;0.20;;;;;;;12.12;94.30;99552.97;5068686;28;20419;-72
2022/12/23 03:19:12;;;;;;;1.33;0.20;;;;;;;12.08;94.71;99551.91;5030442;28;20396;-72
2022/12/23 03:21:53;;;;;;;1.40;0.40;;;;;;;12.05;94.87;99557.91;5041646;28;20397;-73
2022/12/23 03:24:27;;;;;;;0.40;0.40;;;;;;;12.05;94.95;99562.50;5051858;28;20480;-72
2022/12/23 03:26:59;;;;;;;0.50;0.40;;;;;;;12.04;94.71;99574.44;5044194;28;20466;-72
2022/12/23 03:29:40;;;;;;;0.60;0.25;;;;;;;12.09;94.63;99569.00;5047089;28;20439;-72
2022/12/23 03:32:06;;;;;;;1.42;0.30;;;;;;;12.07;94.75;99563.84;5051341;28;20389;-72
2022/12/23 03:34:38;;;;;;;0.13;0.13;;;;;;;12.12;94.75;99560.31;5050286;28;20409;-72
2022/12/23 03:37:07;;;;;;;2.80;0.30;;;;;;;12.12;94.85;99560.31;5036650;28;20415;-72
2022/12/23 03:39:38;;;;;;;0.52;0.20;;;;;;;12.14;94.85;99558.94;5018627;28;20403;-72
2022/12/23 03:42:14;;;;;;;0.70;0.20;;;;;;;12.15;94.83;99562.47;5033886;28;20881;-72
2022/12/23 03:44:44;;;;;;;2.00;0.60;;;;;;;12.17;94.58;99576.59;5051154;28;20861;-73
2022/12/23 03:47:16;;;;;;;0.20;0.20;;;;;;;12.13;94.84;99570.88;5040828;28;20493;-73
2022/12/23 03:50:06;;;;;;;1.40;0.20;;;;;;;12.18;94.78;99578.22;5037053;28;20400;-72
2022/12/23 03:52:49;;;;;;;0.52;0.38;;;;;;;12.18;94.71;99572.78;5051126;28;20520;-72
2022/12/23 03:55:20;;;;;;;1.25;0.20;;;;;;;12.16;94.86;99583.91;5042150;28;20424;-72
2022/12/23 03:58:10;;;;;;;0.20;0.20;;;;;;;12.17;94.50;99582.84;5045940;28;20413;-73
2022/12/23 04:00:45;;;;;;;0.30;0.30;;;;;;;12.20;94.88;99587.72;5039710;28;20492;-72
2022/12/23 04:03:23;;;;;;;0.85;0.20;;;;;;;12.27;94.62;99582.00;5049318;28;20381;-72
2022/12/23 04:05:57;;;;;;;1.40;0.30;;;;;;;12.25;94.56;99592.31;5051100;28;20408;-72
2022/12/23 04:08:35;;;;;;;1.40;0.30;;;;;;;12.30;94.31;99600.44;5022474;28;20983;-72
2022/12/23 04:11:01;;;;;;;0.22;0.22;;;;;;;12.27;94.33;99593.66;5048736;28;20851;-72
2022/12/23 04:13:27;;;;;;;0.30;0.30;;;;;;;12.28;94.55;99592.56;5044380;28;20443;-73
2022/12/23 04:15:53;;;;;;;0.40;0.40;;;;;;;12.33;94.78;99594.47;5050792;28;20419;-72
2022/12/23 04:18:18;;;;;;;0.50;0.20;;;;;;;12.37;94.36;99598.25;5027248;28;20417;-72
2022/12/23 04:20:44;;;;;;;0.15;0.15;;;;;;;12.38;94.23;99602.59;5046568;28;20388;-72
2022/12/23 04:23:09;;;;;;;1.00;0.20;;;;;;;12.37;94.26;99612.66;5038276;28;20475;-72
2022/12/23 04:25:34;;;;;;;0.55;0.28;;;;;;;12.33;94.29;99606.16;5030226;28;20768;-72
2022/12/23 04:28:00;;;;;;;0.37;0.37;;;;;;;12.34;94.39;99617.81;5038394;28;20481;-73
2022/12/23 04:30:25;;;;;;;0.80;0.35;;;;;;;12.35;94.41;99616.72;5016120;28;20421;-72
2022/12/23 04:32:50;;;;;;;1.57;0.60;;;;;;;12.36;94.22;99626.50;5050571;28;20464;-72
2022/12/23 04:35:15;;;;;;;0.80;0.77;;;;;;;12.37;94.05;99633.56;5029965;28;20436;-72
2022/12/23 04:37:41;;;;;;;0.57;0.57;;;;;;;12.35;94.21;99636.56;5032797;28;20464;-72
2022/12/23 04:40:07;;;;;;;1.10;0.50;;;;;;;12.32;94.19;99642.53;5033148;28;20415;-72
2022/12/23 04:42:32;;;;;;;1.10;0.50;;;;;;;12.31;94.18;99635.50;5026108;28;20503;-72
2022/12/23 04:44:58;;;;;;;0.37;0.30;;;;;;;12.30;93.92;99633.03;5025225;28;20497;-73
2022/12/23 04:47:23;;;;;;;1.40;0.40;;;;;;;12.30;94.09;99631.16;5012163;28;20415;-73
2022/12/23 04:49:48;;;;;;;0.22;0.22;;;;;;;12.31;94.02;99629.25;5023021;28;20403;-73
2022/12/23 04:52:14;;;;;;;0.60;0.23;;;;;;;12.33;94.25;99629.78;5027296;28;20407;-72
2022/12/23 04:54:39;;;;;;;0.30;0.30;;;;;;;12.36;94.17;99643.63;5017677;28;20416;-72
2022/12/23 04:57:04;;;;;;;1.90;0.30;;;;;;;12.36;94.02;99635.47;5027460;28;20908;-72
2022/12/23 04:59:30;;;;;;;0.25;0.25;;;;;;;12.35;93.42;99639.28;5015568;28;20423;-72
2022/12/23 05:01:56;;;;;;;1.00;0.30;;;;;;;12.32;93.91;99639.81;5045511;28;20396;-73
2022/12/23 05:04:21;;;;;;;0.50;0.30;;;;;;;12.34;93.64;99637.66;5041806;28;20526;-72
2022/12/23 05:06:47;;;;;;;1.40;0.40;;;;;;;12.32;93.85;99634.41;5050472;28;20460;-72
2022/12/23 05:09:12;;;;;;;3.23;0.50;;;;;;;12.30;93.73;99635.75;5025630;28;20411;-72
2022/12/23 05:11:37;;;;;;;0.50;0.30;;;;;;;12.32;93.83;99628.13;5043575;28;20964;-73
2022/12/23 05:14:02;;;;;;;0.30;0.30;;;;;;;12.31;93.66;99623.81;5016149;28;20467;-72
2022/12/23 05:16:29;;;;;;;1.90;0.50;;;;;;;12.29;93.60;99624.09;5014068;28;20435;-73
2022/12/23 05:18:55;;;;;;;1.10;0.30;;;;;;;12.30;93.75;99620.28;5018361;28;20811;-72
2022/12/23 05:21:20;;;;;;;0.30;0.30;;;;;;;12.30;93.67;99624.91;5042007;28;20397;-72
2022/12/23 05:23:45;;;;;;;1.70;0.40;;;;;;;12.27;93.68;99631.69;5028658;28;20723;-72
2022/12/23 05:26:10;;;;;;;0.87;0.30;;;;;;;12.27;93.66;99649.91;5025387;28;20482;-72
2022/12/23 05:28:36;;;;;;;1.30;0.20;;;;;;;12.28;93.72;99646.91;5015967;28;20405;-72
2022/12/23 05:31:05;;;;;;;0.57;0.25;;;;;;;12.27;93.57;99648.00;5017212;28;20463;-73
2022/12/23 05:33:30;;;;;;;1.55;0.30;;;;;;;12.26;93.63;99631.97;5022649;28;20454;-73
2022/12/23 05:35:56;;;;;;;2.00;0.32;;;;;;;12.25;93.60;99633.88;5034191;28;20844;-72
2022/12/23 05:38:21;;;;;;;0.70;0.50;;;;;;;12.26;93.56;99631.97;5024657;28;20436;-73
2022/12/23 05:40:47;;;;;;;0.63;0.38;;;;;;;12.23;93.78;99638.78;5037949;28;20382;-72
2022/12/23 05:43:13;;;;;;;0.80;0.30;;;;;;;12.22;93.88;99642.56;5028548;28;20473;-73
2022/12/23 05:45:38;;;;;;;0.45;0.20;;;;;;;12.23;93.73;99632.53;5021407;28;20407;-73
2022/12/23 05:48:04;;;;;;;1.60;0.50;;;;;;;12.24;93.70;99632.25;5014679;28;20467;-72
2022/12/23 05:50:30;;;;;;;0.30;0.30;;;;;;;12.21;93.66;99624.66;5026593;28;20443;-73
2022/12/23 05:52:56;;;;;;;0.60;0.30;;;;;;;12.24;93.84;99626.00;5033598;28;20460;-72
2022/12/23 05:55:22;;;;;;;0.90;0.20;;;;;;;12.21;93.69;99621.94;5021308;28;23106;-72
2022/12/23 05:57:47;;;;;;;0.45;0.30;;;;;;;12.23;93.69;99617.03;5033187;28;20401;-73
2022/12/23 06:00:13;;;;;;;0.63;0.40;;;;;;;12.25;93.67;99614.06;5042375;28;20737;-73
2022/12/23 06:02:38;;;;;;;1.23;0.97;;;;;;;12.25;93.35;99617.56;5026693;28;20553;-73
2022/12/23 06:05:04;;;;;;;3.33;3.03;;;;;;;12.25;93.71;99617.56;5025173;28;20397;-73
2022/12/23 06:07:29;;;;;;;1.70;1.60;;;;;;;12.26;93.62;99615.66;5019072;28;20491;-72
2022/12/23 06:09:55;;;;;;;1.70;1.00;;;;;;;12.25;93.74;99625.72;5020334;28;20809;-72
2022/12/23 06:12:20;;;;;;;1.90;1.07;;;;;;;12.26;93.75;99621.09;5031164;28;20404;-73
2022/12/23 06:14:45;;;;;;;1.40;0.70;;;;;;;12.23;93.45;99617.03;5021284;28;20463;-73
2022/12/23 06:17:11;;;;;;;0.90;0.50;;;;;;;12.25;93.63;99620.28;5040573;28;20405;-73
2022/12/23 06:19:36;;;;;;;1.40;0.70;;;;;;;12.26;93.83;99615.66;5048529;28;20405;-72
2022/12/23 06:22:01;;;;;;;1.77;0.60;;;;;;;12.25;93.38;99614.84;5039022;28;20438;-72
2022/12/23 06:24:26;;;;;;;0.60;0.60;;;;;;;12.28;93.34;99618.94;5024060;28;20421;-72
2022/12/23 06:26:52;;;;;;;2.83;1.70;;;;;;;12.28;93.38;99624.38;5041634;28;20760;-72
2022/12/23 06:29:17;;;;;;;2.80;2.00;;;;;;;12.26;93.33;99629.25;5048011;28;20389;-73
2022/12/23 06:31:42;;;;;;;1.20;1.20;;;;;;;12.26;93.40;99629.25;5044264;28;20397;-73
2022/12/23 06:34:08;;;;;;;2.00;0.80;;;;;;;12.26;93.35;99630.06;5039810;28;20416;-73
2022/12/23 06:36:33;;;;;;;1.33;0.63;;;;;;;12.28;93.53;99632.53;5029708;28;20425;-72
2022/12/23 06:38:58;;;;;;;0.77;0.73;;;;;;;12.30;93.34;99638.47;5019504;28;20962;-73
2022/12/23 06:41:23;;;;;;;0.70;0.70;;;;;;;12.33;93.21;99640.66;5030922;28;20402;-73
2022/12/23 06:43:48;;;;;;;1.33;1.13;;;;;;;12.32;93.39;99634.41;5025489;28;20470;-73
2022/12/23 06:46:14;;;;;;;1.17;0.77;;;;;;;12.33;93.41;99636.03;5031026;28;20759;-73
2022/12/23 06:48:39;;;;;;;1.10;1.00;;;;;;;12.34;93.31;99647.72;5049034;28;20394;-73
2022/12/23 06:51:04;;;;;;;2.70;2.13;;;;;;;12.32;93.29;99642.53;5040391;28;20398;-72
2022/12/23 06:53:30;;;;;;;2.97;2.10;;;;;;;12.33;93.37;99646.91;5018253;28;20487;-72
2022/12/23 06:55:59;;;;;;;2.13;1.50;;;;;;;12.31;92.99;99642.84;5025688;28;20415;-72
2022/12/23 06:58:25;;;;;;;2.20;1.10;;;;;;;12.30;92.95;99652.06;5029551;28;20559;-73
2022/12/23 07:00:50;;;;;;;1.67;1.37;;;;;;;12.31;93.19;99653.69;5019636;28;20401;-73
2022/12/23 07:03:15;;;;;;;1.03;0.90;;;;;;;12.29;93.39;99658.56;5037130;28;20440;-72
2022/12/23 07:05:41;;;;;;;1.10;0.87;;;;;;;12.29;93.25;99661.28;5029727;28;20404;-73
2022/12/23 07:08:06;;;;;;;1.50;1.30;;;;;;;12.27;93.21;99658.88;5033859;28;20394;-73
2022/12/23 07:10:32;;;;;;;1.20;1.10;;;;;;;12.26;93.31;99664.56;5024686;28;20762;-72
2022/12/23 07:12:58;;;;;;;3.05;0.82;;;;;;;12.25;93.32;99661.03;5026541;28;20402;-73
2022/12/23 07:15:23;;;;;;;2.90;1.63;;;;;;;12.23;93.47;99665.94;5031360;28;20890;-73
2022/12/23 07:17:48;;;;;;;1.80;1.70;;;;;;;12.24;93.19;99678.44;5027763;28;20424;-73
2022/12/23 07:20:14;;;;;;;3.90;2.03;;;;;;;12.24;93.29;99680.34;5027754;28;20783;-73
2022/12/23 07:22:39;;;;;;;3.88;1.40;;;;;;;12.24;93.43;99669.47;5018062;28;20411;-74
2022/12/23 07:25:05;;;;;;;7.13;1.93;;;;;;;12.23;93.66;99686.84;5025069;28;20403;-74
2022/12/23 07:27:30;;;;;;;2.38;1.08;;;;;;;12.22;93.76;99677.88;5017728;28;20441;-73
2022/12/23 07:29:55;;;;;;;3.07;1.80;;;;;;;12.23;93.37;99678.69;5020225;28;20393;-73
2022/12/23 07:32:20;;;;;;;2.73;1.30;;;;;;;12.24;93.65;99683.06;5024227;28;20404;-74
2022/12/23 07:34:46;;;;;;;1.70;1.10;;;;;;;12.25;93.71;99680.03;5017933;28;20422;-73
2022/12/23 07:37:11;;;;;;;2.50;1.70;;;;;;;12.27;93.81;99680.59;5025519;28;20405;-73
2022/12/23 07:39:37;;;;;;;2.20;1.90;;;;;;;12.29;93.64;99678.41;5031378;28;20447;-73
2022/12/23 07:42:02;;;;;;;3.87;1.83;;;;;;;12.29;93.69;99675.69;5021560;28;20400;-74
2022/12/23 07:44:28;;;;;;;1.93;1.33;;;;;;;12.30;93.71;99680.06;5022297;28;20475;-73
2022/12/23 07:46:53;;;;;;;1.87;1.60;;;;;;;12.28;93.85;99679.50;5028962;28;20445;-73
2022/12/23 07:49:18;;;;;;;1.97;1.07;;;;;;;12.29;93.95;99678.41;5037813;28;20412;-73
2022/12/23 07:51:43;;;;;;;0.90;0.90;;;;;;;12.30;93.99;99690.91;5021116;28;20736;-73
2022/12/23 07:54:12;;;;;;;1.50;0.90;;;;;;;12.33;94.09;99695.81;5029684;28;20459;-73
2022/12/23 07:56:37;;;;;;;3.23;0.73;;;;;;;12.37;94.15;99696.06;5027537;28;20433;-73
2022/12/23 07:59:02;;;;;;;1.60;0.80;;;;;;;12.37;94.13;99694.16;5026777;28;20441;-73
2022/12/23 08:01:28;;;;;;;1.60;0.50;;;;;;;12.38;94.20;99697.72;5051154;28;20432;-74
2022/12/23 08:03:53;;;;;;;1.17;0.60;;;;;;;12.40;94.25;99699.06;5049807;28;20397;-73
2022/12/23 08:06:18;;;;;;;0.70;0.70;;;;;;;12.39;94.21;99696.59;5032000;28;20426;-72
2022/12/23 08:08:45;;;;;;;0.70;0.70;;;;;;;12.39;94.27;99693.88;5019993;28;20794;-73
2022/12/23 08:11:12;;;;;;;0.55;0.55;;;;;;;12.37;94.40;99699.59;5028845;28;20402;-73
2022/12/23 08:13:39;;;;;;;1.30;1.17;;;;;;;12.38;94.45;99687.63;5035889;28;20432;-74
2022/12/23 08:16:05;;;;;;;1.35;1.30;;;;;;;12.40;94.10;99687.38;5022573;28;20419;-73
2022/12/23 08:18:32;;;;;;;0.88;0.88;;;;;;;12.40;94.20;99688.19;5045759;28;20412;-73
2022/12/23 08:21:03;;;;;;;0.52;0.52;;;;;;;12.41;94.19;99697.16;5040468;28;20477;-73
2022/12/23 08:23:29;;;;;;;0.70;0.50;;;;;;;12.40;94.13;99682.75;5050523;28;20443;-73
2022/12/23 08:26:06;;;;;;;3.88;0.77;;;;;;;12.42;93.96;99671.59;5050632;28;20455;-73
2022/12/23 08:28:32;;;;;;;0.82;0.50;;;;;;;12.40;94.00;99681.94;5049980;28;20504;-73
2022/12/23 08:31:08;;;;;;;0.75;0.50;;;;;;;12.42;94.16;99682.47;5050718;28;20423;-73
2022/12/23 08:33:36;;;;;;;1.10;0.60;;;;;;;12.41;94.10;99683.56;5032539;28;20761;-73
2022/12/23 08:36:03;;;;;;;0.85;0.70;;;;;;;12.41;93.81;99689.78;5041639;28;20412;-73
2022/12/23 08:38:28;;;;;;;1.63;0.80;;;;;;;12.41;93.99;99683.56;5049959;28;20391;-73
2022/12/23 08:40:53;;;;;;;4.83;2.30;;;;;;;12.37;94.25;99680.59;5050792;28;20392;-74
2022/12/23 08:43:19;;;;;;;2.60;1.50;;;;;;;12.39;94.18;99680.28;5050372;28;20502;-73
2022/12/23 08:45:44;;;;;;;9.67;4.00;;;;;;;12.38;94.25;99695.00;5018256;28;20420;-73
2022/12/23 08:48:12;;;;;;;4.40;2.40;;;;;;;12.36;93.99;99694.44;5076802;28;20422;-73
2022/12/23 08:50:38;;;;;;;3.67;1.95;;;;;;;12.34;94.22;99689.28;5031552;28;20416;-73
2022/12/23 08:53:04;;;;;;;3.30;2.40;;;;;;;12.36;94.08;99699.88;5048905;28;20385;-74
2022/12/23 08:55:30;;;;;;;2.28;1.50;;;;;;;12.34;94.44;99692.00;5033521;28;20426;-73
2022/12/23 08:57:55;;;;;;;2.20;2.00;;;;;;;12.37;94.02;99701.50;5033446;28;20415;-74
2022/12/23 09:00:20;;;;;;;1.53;1.23;;;;;;;12.37;94.52;99693.34;5029316;28;20502;-73
2022/12/23 09:02:46;;;;;;;2.20;2.00;;;;;;;12.39;94.43;99696.59;5033039;28;20405;-73
2022/12/23 09:05:11;;;;;;;3.60;2.30;;;;;;;12.39;94.20;99686.53;5035195;28;20422;-73
2022/12/23 09:07:36;;;;;;;4.73;2.90;;;;;;;12.42;94.22;99677.84;5031628;28;20411;-73
2022/12/23 09:10:02;;;;;;;1.08;1.02;;;;;;;12.45;94.15;99671.03;5035036;28;20401;-73
2022/12/23 09:12:27;;;;;;;1.77;1.20;;;;;;;12.48;93.99;99660.44;5026910;28;20390;-74
2022/12/23 09:14:53;;;;;;;1.73;0.67;;;;;;;12.51;94.07;99655.53;5025429;28;20422;-74
2022/12/23 09:17:18;;;;;;;3.10;0.90;;;;;;;12.53;93.75;99654.16;5050138;28;20414;-73
2022/12/23 09:19:44;;;;;;;0.93;0.93;;;;;;;12.55;93.61;99651.16;5029471;28;20496;-74
2022/12/23 09:22:09;;;;;;;3.30;1.60;;;;;;;12.56;93.86;99644.66;5037284;28;20413;-73
2022/12/23 09:24:34;;;;;;;1.37;1.00;;;;;;;12.60;93.65;99635.66;5036173;28;20829;-73
2022/12/23 09:26:59;;;;;;;1.45;1.38;;;;;;;12.60;93.74;99632.13;5031363;28;20395;-73
2022/12/23 09:29:25;;;;;;;2.20;1.33;;;;;;;12.63;93.78;99628.84;5036315;28;20403;-73
2022/12/23 09:31:50;;;;;;;1.80;1.70;;;;;;;12.63;93.42;99624.25;5029349;28;20931;-73
2022/12/23 09:34:15;;;;;;;5.90;4.60;;;;;;;12.62;93.77;99616.34;5037087;28;20399;-73
2022/12/23 09:36:41;;;;;;;5.55;4.95;;;;;;;12.62;93.61;99622.59;5039413;28;20398;-73
2022/12/23 09:39:06;;;;;;;3.00;2.80;;;;;;;12.60;93.53;99624.78;5034000;28;20431;-73
2022/12/23 09:41:54;;;;;;;2.10;2.00;;;;;;;12.61;93.72;99623.72;5030842;28;20483;-73
2022/12/23 09:44:51;;;;;;;1.60;1.60;;;;;;;12.62;93.97;99628.03;5037933;28;20477;-73
2022/12/23 09:47:20;;;;;;;1.60;1.50;;;;;;;12.64;93.81;99628.59;5027458;28;20411;-73
2022/12/23 09:49:53;;;;;;;2.83;1.90;;;;;;;12.63;93.98;99620.69;5026197;28;20807;-74
2022/12/23 09:52:24;;;;;;;1.80;1.70;;;;;;;12.65;93.98;99632.09;5031931;28;20982;-73
2022/12/23 09:54:52;;;;;;;1.52;1.50;;;;;;;12.65;93.92;99624.75;5035738;28;20502;-73
2022/12/23 09:57:25;;;;;;;2.03;1.30;;;;;;;12.66;94.12;99631.84;5029696;28;20399;-73
2022/12/23 09:59:57;;;;;;;1.67;1.00;;;;;;;12.72;94.16;99627.19;5037145;28;20399;-73
2022/12/23 10:02:29;;;;;;;1.80;1.70;;;;;;;12.75;93.87;99627.44;5035295;28;20406;-73
2022/12/23 10:05:15;;;;;;;1.15;1.15;;;;;;;12.76;93.73;99620.09;5040779;28;20402;-73
2022/12/23 10:07:52;;;;;;;1.83;1.42;;;;;;;12.77;94.03;99616.28;5027926;28;20489;-73
2022/12/23 10:10:41;;;;;;;1.45;1.05;;;;;;;12.82;93.92;99617.06;5034495;28;20434;-73
2022/12/23 10:13:18;;;;;;;0.95;0.95;;;;;;;12.81;93.92;99617.38;5030143;28;20486;-73
2022/12/23 10:15:47;;;;;;;0.75;0.75;;;;;;;12.80;93.80;99615.72;5032015;28;20463;-74
2022/12/23 10:18:37;;;;;;;0.60;0.55;;;;;;;12.80;94.05;99613.84;5032886;28;20399;-74
2022/12/23 10:21:06;;;;;;;1.30;1.20;;;;;;;12.81;94.03;99607.28;5030028;28;20404;-73
2022/12/23 10:23:42;;;;;;;2.90;0.63;;;;;;;12.80;93.89;99608.41;5030439;28;20398;-73
2022/12/23 10:26:17;;;;;;;2.50;2.33;;;;;;;12.78;93.83;99593.44;5035875;28;20549;-73
2022/12/23 10:28:42;;;;;;;1.35;1.20;;;;;;;12.85;93.84;99596.66;5040708;28;20481;-73
2022/12/23 10:31:16;;;;;;;1.00;1.00;;;;;;;12.89;93.70;99606.72;5025205;28;20500;-73
2022/12/23 10:33:54;;;;;;;1.20;1.20;;;;;;;12.90;94.04;99588.50;5039252;28;20438;-73
2022/12/23 10:36:36;;;;;;;2.70;2.60;;;;;;;12.95;94.10;99581.09;5034567;28;21383;-73
2022/12/23 10:39:14;;;;;;;0.70;0.70;;;;;;;13.01;93.93;99576.44;5026589;28;20472;-73
2022/12/23 10:42:01;;;;;;;2.05;1.95;;;;;;;13.04;93.60;99573.16;5031912;28;20920;-73
2022/12/23 10:44:42;;;;;;;1.40;0.90;;;;;;;13.05;93.33;99573.97;5030709;28;20424;-72
2022/12/23 10:47:49;;;;;;;1.15;0.73;;;;;;;13.10;93.77;99568.53;5036775;28;20406;-73
2022/12/23 10:50:35;;;;;;;0.83;0.83;;;;;;;13.12;93.37;99569.06;5018999;28;20473;-73
2022/12/23 10:53:03;;;;;;;1.40;0.68;;;;;;;13.13;93.46;99568.78;5052059;28;20417;-73
2022/12/23 10:55:34;;;;;;;1.00;1.00;;;;;;;13.18;93.42;99566.03;5042203;28;20409;-73
2022/12/23 10:58:17;;;;;;;0.65;0.65;;;;;;;13.21;93.62;99561.91;5037130;28;20403;-74
2022/12/23 11:00:52;;;;;;;0.50;0.50;;;;;;;13.20;93.59;99558.41;5022304;28;20411;-73
2022/12/23 11:03:26;;;;;;;2.53;1.25;;;;;;;13.21;93.52;99548.31;5035886;28;20792;-73
2022/12/23 11:05:52;;;;;;;1.20;0.55;;;;;;;13.20;93.86;99549.44;5044670;28;20761;-74
2022/12/23 11:08:20;;;;;;;1.10;0.87;;;;;;;13.22;93.51;99548.03;5033379;28;20416;-74
2022/12/23 11:10:46;;;;;;;1.40;0.90;;;;;;;13.25;93.57;99546.66;5033440;28;20506;-74
2022/12/23 11:13:23;;;;;;;0.80;0.80;;;;;;;13.25;93.82;99541.22;5039878;28;20407;-74
2022/12/23 11:15:48;;;;;;;3.05;0.82;;;;;;;13.23;93.60;99536.06;5045177;28;20422;-74
2022/12/23 11:18:19;;;;;;;0.67;0.67;;;;;;;13.26;93.75;99527.34;5029258;28;20405;-74
2022/12/23 11:21:00;;;;;;;2.30;1.30;;;;;;;13.27;93.59;99522.72;5023378;28;20407;-74
2022/12/23 11:23:31;;;;;;;1.00;0.93;;;;;;;13.31;93.25;99507.41;5024726;28;20406;-74
2022/12/23 11:26:07;;;;;;;1.48;0.77;;;;;;;13.31;93.50;99507.41;5051124;28;20382;-72
2022/12/23 11:28:36;;;;;;;0.90;0.90;;;;;;;13.30;93.32;99493.03;5037155;28;20410;-73
2022/12/23 11:31:08;;;;;;;1.63;0.90;;;;;;;13.32;93.38;99496.25;5038719;28;20402;-73
2022/12/23 11:33:39;;;;;;;1.58;0.65;;;;;;;13.33;93.44;99487.00;5029904;28;20391;-73
2022/12/23 11:36:06;;;;;;;0.73;0.68;;;;;;;13.33;93.30;99488.91;5039850;28;20420;-73
2022/12/23 11:38:34;;;;;;;2.40;1.60;;;;;;;13.32;93.16;99479.94;5037709;28;20410;-73
2022/12/23 11:41:00;;;;;;;3.50;2.25;;;;;;;13.33;93.46;99467.16;5032407;28;20403;-74
2022/12/23 11:43:26;;;;;;;3.60;2.00;;;;;;;13.34;93.04;99476.91;5036228;28;20390;-73
2022/12/23 11:46:31;;;;;;;1.70;1.20;;;;;;;13.34;93.19;99464.13;5035865;28;20498;-73
2022/12/23 11:49:14;;;;;;;1.23;1.13;;;;;;;13.36;93.16;99458.41;4968707;28;20543;-73
2022/12/23 11:51:41;;;;;;;1.88;1.45;;;;;;;13.31;93.45;99456.53;4957011;28;20423;-73
2022/12/23 11:54:15;;;;;;;1.10;1.10;;;;;;;13.32;93.62;99450.00;5006646;28;20403;-73
2022/12/23 11:56:40;;;;;;;2.15;1.15;;;;;;;13.36;93.73;99436.63;5021435;28;20442;-73
2022/12/23 11:59:17;;;;;;;1.10;0.80;;;;;;;13.35;93.62;99430.38;5038976;28;20451;-73
2022/12/23 12:01:47;;;;;;;1.08;0.77;;;;;;;13.37;93.57;99432.81;5020436;28;20959;-73
2022/12/23 12:04:19;;;;;;;2.00;0.70;;;;;;;13.38;93.56;99423.53;5036615;28;20450;-73
2022/12/23 12:06:45;;;;;;;2.75;1.05;;;;;;;13.41;93.56;99431.94;5024501;28;20410;-73
2022/12/23 12:09:12;;;;;;;1.00;0.93;;;;;;;13.43;93.60;99427.03;5039189;28;20394;-74
2022/12/23 12:11:44;;;;;;;2.40;1.77;;;;;;;13.42;93.48;99419.16;5051146;28;20400;-73
2022/12/23 12:14:20;;;;;;;6.90;5.50;;;;;;;13.42;93.65;99410.97;5030169;28;20789;-73
2022/12/23 12:17:13;;;;;;;6.50;5.83;;;;;;;13.42;93.97;99403.63;5033823;28;20949;-74